sensor_id;sensor_type;location;lat;lon;timestamp;P1;durP1;ratioP1;P2;durP2;ratioP2
16967;SDS011;64862;54.398;10.126;2024-01-11T00:06:59;39.45;;;20.30;;
16967;SDS011;64862;54.398;10.126;2024-01-11T00:17:02;32.22;;;17.05;;
16967;SDS011;64862;54.398;10.126;2024-01-11T00:27:04;23.75;;;12.98;;
16967;SDS011;64862;54.398;10.126;2024-01-11T00:37:07;18.73;;;10.90;;
16967;SDS011;64862;54.398;10.126;2024-01-11T00:47:09;15.98;;;9.80;;
16967;SDS011;64862;54.398;10.126;2024-01-11T00:57:13;14.82;;;9.18;;
16967;SDS011;64862;54.398;10.126;2024-01-11T01:07:15;15.32;;;9.07;;
16967;SDS011;64862;54.398;10.126;2024-01-11T01:17:18;16.10;;;9.10;;
16967;SDS011;64862;54.398;10.126;2024-01-11T01:27:20;17.35;;;10.00;;
16967;SDS011;64862;54.398;10.126;2024-01-11T01:37:23;15.13;;;9.95;;
16967;SDS011;64862;54.398;10.126;2024-01-11T01:47:25;17.67;;;10.60;;
16967;SDS011;64862;54.398;10.126;2024-01-11T01:57:30;15.82;;;10.52;;
16967;SDS011;64862;54.398;10.126;2024-01-11T02:07:33;16.45;;;10.27;;
16967;SDS011;64862;54.398;10.126;2024-01-11T02:17:37;17.10;;;11.02;;
16967;SDS011;64862;54.398;10.126;2024-01-11T02:27:46;16.58;;;11.07;;
16967;SDS011;64862;54.398;10.126;2024-01-11T02:37:48;15.32;;;9.32;;
16967;SDS011;64862;54.398;10.126;2024-01-11T02:47:52;15.30;;;9.40;;
16967;SDS011;64862;54.398;10.126;2024-01-11T02:57:54;13.82;;;9.10;;
16967;SDS011;64862;54.398;10.126;2024-01-11T03:07:57;14.07;;;9.25;;
16967;SDS011;64862;54.398;10.126;2024-01-11T03:17:59;13.45;;;8.38;;
16967;SDS011;64862;54.398;10.126;2024-01-11T03:28:03;13.38;;;8.60;;
16967;SDS011;64862;54.398;10.126;2024-01-11T03:38:05;13.25;;;7.85;;
16967;SDS011;64862;54.398;10.126;2024-01-11T03:48:09;13.85;;;7.70;;
16967;SDS011;64862;54.398;10.126;2024-01-11T03:58:11;14.32;;;7.65;;
16967;SDS011;64862;54.398;10.126;2024-01-11T04:08:14;17.98;;;7.55;;
16967;SDS011;64862;54.398;10.126;2024-01-11T04:18:16;13.45;;;6.90;;
16967;SDS011;64862;54.398;10.126;2024-01-11T04:28:19;19.63;;;7.40;;
16967;SDS011;64862;54.398;10.126;2024-01-11T04:38:21;13.15;;;6.10;;
16967;SDS011;64862;54.398;10.126;2024-01-11T04:48:24;12.20;;;6.15;;
16967;SDS011;64862;54.398;10.126;2024-01-11T04:58:26;15.25;;;6.25;;
16967;SDS011;64862;54.398;10.126;2024-01-11T05:08:29;15.18;;;7.43;;
16967;SDS011;64862;54.398;10.126;2024-01-11T05:18:32;20.60;;;6.50;;
16967;SDS011;64862;54.398;10.126;2024-01-11T05:28:35;9.75;;;4.60;;
16967;SDS011;64862;54.398;10.126;2024-01-11T05:38:39;10.63;;;5.25;;
16967;SDS011;64862;54.398;10.126;2024-01-11T05:48:43;16.23;;;4.28;;
16967;SDS011;64862;54.398;10.126;2024-01-11T05:58:44;22.33;;;4.43;;
16967;SDS011;64862;54.398;10.126;2024-01-11T06:08:48;12.68;;;4.03;;
16967;SDS011;64862;54.398;10.126;2024-01-11T06:18:50;8.90;;;4.30;;
16967;SDS011;64862;54.398;10.126;2024-01-11T06:28:55;11.30;;;4.32;;
16967;SDS011;64862;54.398;10.126;2024-01-11T06:38:58;9.07;;;4.03;;
16967;SDS011;64862;54.398;10.126;2024-01-11T06:49:02;13.07;;;4.80;;
16967;SDS011;64862;54.398;10.126;2024-01-11T06:59:05;15.20;;;5.82;;
16967;SDS011;64862;54.398;10.126;2024-01-11T07:09:09;16.23;;;6.43;;
16967;SDS011;64862;54.398;10.126;2024-01-11T07:19:11;11.80;;;4.97;;
16967;SDS011;64862;54.398;10.126;2024-01-11T07:29:15;13.32;;;4.28;;
16967;SDS011;64862;54.398;10.126;2024-01-11T07:39:16;8.45;;;3.80;;
16967;SDS011;64862;54.398;10.126;2024-01-11T07:49:21;14.23;;;6.57;;
16967;SDS011;64862;54.398;10.126;2024-01-11T07:59:23;15.02;;;7.00;;
16967;SDS011;64862;54.398;10.126;2024-01-11T08:09:26;15.10;;;6.60;;
16967;SDS011;64862;54.398;10.126;2024-01-11T08:19:28;17.33;;;5.95;;
16967;SDS011;64862;54.398;10.126;2024-01-11T08:29:31;13.40;;;5.78;;
16967;SDS011;64862;54.398;10.126;2024-01-11T08:39:35;10.82;;;5.47;;
16967;SDS011;64862;54.398;10.126;2024-01-11T08:49:39;15.10;;;6.35;;
16967;SDS011;64862;54.398;10.126;2024-01-11T08:59:41;15.15;;;6.70;;
16967;SDS011;64862;54.398;10.126;2024-01-11T09:09:47;17.15;;;8.52;;
16967;SDS011;64862;54.398;10.126;2024-01-11T09:19:49;30.58;;;13.70;;
16967;SDS011;64862;54.398;10.126;2024-01-11T09:29:53;30.17;;;14.50;;
16967;SDS011;64862;54.398;10.126;2024-01-11T09:39:57;35.17;;;14.10;;
16967;SDS011;64862;54.398;10.126;2024-01-11T09:50:02;30.17;;;13.88;;
16967;SDS011;64862;54.398;10.126;2024-01-11T10:00:05;26.20;;;13.23;;
16967;SDS011;64862;54.398;10.126;2024-01-11T10:10:12;20.42;;;11.13;;
16967;SDS011;64862;54.398;10.126;2024-01-11T10:20:17;20.10;;;9.57;;
16967;SDS011;64862;54.398;10.126;2024-01-11T10:30:26;23.17;;;9.85;;
16967;SDS011;64862;54.398;10.126;2024-01-11T10:40:28;18.98;;;8.52;;
16967;SDS011;64862;54.398;10.126;2024-01-11T10:50:33;15.75;;;8.73;;
16967;SDS011;64862;54.398;10.126;2024-01-11T11:00:38;17.98;;;7.50;;
16967;SDS011;64862;54.398;10.126;2024-01-11T11:10:41;18.85;;;8.10;;
16967;SDS011;64862;54.398;10.126;2024-01-11T11:20:47;16.52;;;6.00;;
16967;SDS011;64862;54.398;10.126;2024-01-11T11:30:53;14.57;;;6.05;;
16967;SDS011;64862;54.398;10.126;2024-01-11T11:40:59;14.55;;;5.70;;
16967;SDS011;64862;54.398;10.126;2024-01-11T11:51:07;17.45;;;5.38;;
16967;SDS011;64862;54.398;10.126;2024-01-11T12:01:10;18.58;;;4.80;;
16967;SDS011;64862;54.398;10.126;2024-01-11T12:11:15;13.60;;;4.75;;
16967;SDS011;64862;54.398;10.126;2024-01-11T12:21:20;16.00;;;4.25;;
16967;SDS011;64862;54.398;10.126;2024-01-11T12:31:23;14.15;;;3.65;;
16967;SDS011;64862;54.398;10.126;2024-01-11T12:41:27;16.83;;;3.75;;
16967;SDS011;64862;54.398;10.126;2024-01-11T12:51:30;15.55;;;3.85;;
16967;SDS011;64862;54.398;10.126;2024-01-11T13:01:32;16.80;;;3.80;;
16967;SDS011;64862;54.398;10.126;2024-01-11T13:11:37;22.05;;;4.45;;
16967;SDS011;64862;54.398;10.126;2024-01-11T13:21:41;17.45;;;4.45;;
16967;SDS011;64862;54.398;10.126;2024-01-11T13:31:45;18.02;;;4.65;;
16967;SDS011;64862;54.398;10.126;2024-01-11T13:41:48;25.73;;;5.78;;
16967;SDS011;64862;54.398;10.126;2024-01-11T13:51:51;17.15;;;5.03;;
16967;SDS011;64862;54.398;10.126;2024-01-11T14:01:53;21.63;;;5.82;;
16967;SDS011;64862;54.398;10.126;2024-01-11T14:11:58;17.48;;;5.30;;
16967;SDS011;64862;54.398;10.126;2024-01-11T14:22:01;23.58;;;5.65;;
16967;SDS011;64862;54.398;10.126;2024-01-11T14:32:05;19.52;;;5.35;;
16967;SDS011;64862;54.398;10.126;2024-01-11T14:42:07;16.05;;;4.60;;
16967;SDS011;64862;54.398;10.126;2024-01-11T14:52:11;20.88;;;5.03;;
16967;SDS011;64862;54.398;10.126;2024-01-11T15:02:14;19.63;;;4.88;;
16967;SDS011;64862;54.398;10.126;2024-01-11T15:12:19;21.40;;;5.47;;
16967;SDS011;64862;54.398;10.126;2024-01-11T15:22:23;19.40;;;5.63;;
16967;SDS011;64862;54.398;10.126;2024-01-11T15:32:28;19.33;;;5.15;;
16967;SDS011;64862;54.398;10.126;2024-01-11T15:42:30;17.75;;;4.65;;
16967;SDS011;64862;54.398;10.126;2024-01-11T15:52:35;18.70;;;4.93;;
16967;SDS011;64862;54.398;10.126;2024-01-11T16:02:38;18.40;;;5.70;;
16967;SDS011;64862;54.398;10.126;2024-01-11T16:12:42;18.92;;;5.72;;
16967;SDS011;64862;54.398;10.126;2024-01-11T16:22:44;13.88;;;5.38;;
16967;SDS011;64862;54.398;10.126;2024-01-11T16:32:48;13.40;;;5.10;;
16967;SDS011;64862;54.398;10.126;2024-01-11T16:42:50;17.20;;;6.70;;
16967;SDS011;64862;54.398;10.126;2024-01-11T16:52:54;23.02;;;8.10;;
16967;SDS011;64862;54.398;10.126;2024-01-11T17:02:56;16.65;;;6.38;;
16967;SDS011;64862;54.398;10.126;2024-01-11T17:13:00;15.98;;;6.00;;
16967;SDS011;64862;54.398;10.126;2024-01-11T17:23:03;14.95;;;5.22;;
16967;SDS011;64862;54.398;10.126;2024-01-11T17:33:08;11.43;;;4.40;;
16967;SDS011;64862;54.398;10.126;2024-01-11T17:43:10;14.85;;;3.90;;
16967;SDS011;64862;54.398;10.126;2024-01-11T17:53:15;12.10;;;4.03;;
16967;SDS011;64862;54.398;10.126;2024-01-11T18:03:17;12.05;;;4.60;;
16967;SDS011;64862;54.398;10.126;2024-01-11T18:13:20;15.32;;;5.55;;
16967;SDS011;64862;54.398;10.126;2024-01-11T18:23:22;13.52;;;5.25;;
16967;SDS011;64862;54.398;10.126;2024-01-11T18:33:25;11.15;;;4.97;;
16967;SDS011;64862;54.398;10.126;2024-01-11T18:43:27;15.27;;;6.03;;
16967;SDS011;64862;54.398;10.126;2024-01-11T18:53:31;9.77;;;4.70;;
16967;SDS011;64862;54.398;10.126;2024-01-11T19:03:33;12.80;;;5.13;;
16967;SDS011;64862;54.398;10.126;2024-01-11T19:13:36;17.95;;;6.45;;
16967;SDS011;64862;54.398;10.126;2024-01-11T19:23:38;11.63;;;4.65;;
16967;SDS011;64862;54.398;10.126;2024-01-11T19:33:42;32.25;;;11.48;;
16967;SDS011;64862;54.398;10.126;2024-01-11T19:43:43;20.98;;;8.18;;
16967;SDS011;64862;54.398;10.126;2024-01-11T19:53:47;31.15;;;13.07;;
16967;SDS011;64862;54.398;10.126;2024-01-11T20:03:49;28.83;;;12.07;;
16967;SDS011;64862;54.398;10.126;2024-01-11T20:13:52;14.70;;;7.28;;
16967;SDS011;64862;54.398;10.126;2024-01-11T20:23:54;19.27;;;8.80;;
16967;SDS011;64862;54.398;10.126;2024-01-11T20:33:57;18.27;;;8.32;;
16967;SDS011;64862;54.398;10.126;2024-01-11T20:44:01;14.88;;;8.15;;
16967;SDS011;64862;54.398;10.126;2024-01-11T20:54:04;14.73;;;7.88;;
16967;SDS011;64862;54.398;10.126;2024-01-11T21:04:06;16.73;;;8.02;;
16967;SDS011;64862;54.398;10.126;2024-01-11T21:14:10;17.58;;;8.23;;
16967;SDS011;64862;54.398;10.126;2024-01-11T21:24:13;13.65;;;6.72;;
16967;SDS011;64862;54.398;10.126;2024-01-11T21:34:17;13.15;;;6.20;;
16967;SDS011;64862;54.398;10.126;2024-01-11T21:44:19;10.85;;;4.63;;
16967;SDS011;64862;54.398;10.126;2024-01-11T21:54:22;10.77;;;5.63;;
16967;SDS011;64862;54.398;10.126;2024-01-11T22:04:24;9.55;;;4.85;;
16967;SDS011;64862;54.398;10.126;2024-01-11T22:14:28;10.60;;;5.45;;
16967;SDS011;64862;54.398;10.126;2024-01-11T22:24:29;12.68;;;6.60;;
16967;SDS011;64862;54.398;10.126;2024-01-11T22:34:33;9.70;;;5.47;;
16967;SDS011;64862;54.398;10.126;2024-01-11T22:44:35;9.57;;;5.25;;
16967;SDS011;64862;54.398;10.126;2024-01-11T22:54:38;9.52;;;4.95;;
16967;SDS011;64862;54.398;10.126;2024-01-11T23:04:41;11.00;;;5.13;;
16967;SDS011;64862;54.398;10.126;2024-01-11T23:14:45;10.02;;;5.00;;
16967;SDS011;64862;54.398;10.126;2024-01-11T23:24:46;12.93;;;5.30;;
16967;SDS011;64862;54.398;10.126;2024-01-11T23:34:50;13.85;;;6.10;;
16967;SDS011;64862;54.398;10.126;2024-01-11T23:44:52;11.40;;;5.55;;
16967;SDS011;64862;54.398;10.126;2024-01-11T23:54:55;12.27;;;5.90;;
